sensor_id;sensor_type;location;lat;lon;timestamp;temperature;humidity
1221;DHT22;600;48.044;7.878;2022-12-08T05:38:57;3.30;99.90
1221;DHT22;600;48.044;7.878;2022-12-08T05:41:24;3.30;99.90
1221;DHT22;600;48.044;7.878;2022-12-08T05:43:50;3.20;99.90
1221;DHT22;600;48.044;7.878;2022-12-08T05:46:17;3.20;99.90
1221;DHT22;600;48.044;7.878;2022-12-08T05:48:44;3.10;99.90
1221;DHT22;600;48.044;7.878;2022-12-08T05:51:16;3.00;99.90
1221;DHT22;600;48.044;7.878;2022-12-08T05:53:44;3.00;99.90
1221;DHT22;600;48.044;7.878;2022-12-08T05:56:12;3.00;99.90
1221;DHT22;600;48.044;7.878;2022-12-08T05:58:39;3.10;99.90
1221;DHT22;600;48.044;7.878;2022-12-08T06:01:06;3.10;99.90
1221;DHT22;600;48.044;7.878;2022-12-08T06:03:33;3.20;99.90
1221;DHT22;600;48.044;7.878;2022-12-08T06:05:59;3.20;99.90
1221;DHT22;600;48.044;7.878;2022-12-08T06:08:26;3.20;99.90
1221;DHT22;600;48.044;7.878;2022-12-08T06:10:53;3.20;99.90
1221;DHT22;600;48.044;7.878;2022-12-08T06:13:21;3.20;99.90
1221;DHT22;600;48.044;7.878;2022-12-08T15:53:59;7.10;99.90
1221;DHT22;600;48.044;7.878;2022-12-08T15:56:25;7.10;99.90
1221;DHT22;600;48.044;7.878;2022-12-08T15:58:53;7.00;99.90
1221;DHT22;600;48.044;7.878;2022-12-08T16:01:20;7.00;99.90
1221;DHT22;600;48.044;7.878;2022-12-08T16:03:47;6.90;99.90
1221;DHT22;600;48.044;7.878;2022-12-08T16:06:16;6.80;99.90
1221;DHT22;600;48.044;7.878;2022-12-08T16:08:44;6.80;99.90
1221;DHT22;600;48.044;7.878;2022-12-08T16:11:12;6.70;99.90
1221;DHT22;600;48.044;7.878;2022-12-08T16:13:56;6.70;99.90
1221;DHT22;600;48.044;7.878;2022-12-08T16:16:28;6.60;99.90
1221;DHT22;600;48.044;7.878;2022-12-08T16:18:55;6.60;99.90
1221;DHT22;600;48.044;7.878;2022-12-08T16:21:22;6.50;99.90
1221;DHT22;600;48.044;7.878;2022-12-08T16:23:50;6.50;99.90
1221;DHT22;600;48.044;7.878;2022-12-08T16:26:20;6.40;99.90
1221;DHT22;600;48.044;7.878;2022-12-08T16:28:48;6.40;99.90
1221;DHT22;600;48.044;7.878;2022-12-08T16:31:15;6.30;99.90
1221;DHT22;600;48.044;7.878;2022-12-08T16:33:41;6.30;99.90
1221;DHT22;600;48.044;7.878;2022-12-08T16:36:09;6.20;99.90
1221;DHT22;600;48.044;7.878;2022-12-08T16:38:36;6.20;99.90
1221;DHT22;600;48.044;7.878;2022-12-08T16:41:03;6.20;99.90
1221;DHT22;600;48.044;7.878;2022-12-08T16:43:49;6.10;99.90
1221;DHT22;600;48.044;7.878;2022-12-08T16:46:17;6.10;99.90
1221;DHT22;600;48.044;7.878;2022-12-08T16:48:45;6.00;99.90
1221;DHT22;600;48.044;7.878;2022-12-08T16:51:14;6.00;99.90
1221;DHT22;600;48.044;7.878;2022-12-08T16:53:41;6.00;99.90
1221;DHT22;600;48.044;7.878;2022-12-08T16:56:12;5.90;99.90
1221;DHT22;600;48.044;7.878;2022-12-08T16:58:39;5.90;99.90
1221;DHT22;600;48.044;7.878;2022-12-08T17:01:18;5.80;99.90
1221;DHT22;600;48.044;7.878;2022-12-08T17:03:45;5.80;99.90
1221;DHT22;600;48.044;7.878;2022-12-08T17:06:14;5.80;99.90
1221;DHT22;600;48.044;7.878;2022-12-08T17:08:42;5.70;99.90
1221;DHT22;600;48.044;7.878;2022-12-08T17:11:09;5.70;99.90
1221;DHT22;600;48.044;7.878;2022-12-08T17:13:45;5.60;99.90
1221;DHT22;600;48.044;7.878;2022-12-08T17:16:15;5.50;99.90
1221;DHT22;600;48.044;7.878;2022-12-08T17:18:43;5.50;99.90
1221;DHT22;600;48.044;7.878;2022-12-08T17:21:11;5.50;99.90
1221;DHT22;600;48.044;7.878;2022-12-08T17:23:38;5.50;99.90
1221;DHT22;600;48.044;7.878;2022-12-08T17:26:05;5.50;99.90
1221;DHT22;600;48.044;7.878;2022-12-08T17:28:32;5.50;99.90
1221;DHT22;600;48.044;7.878;2022-12-08T17:30:59;5.40;99.90
1221;DHT22;600;48.044;7.878;2022-12-08T17:33:28;5.40;99.90
1221;DHT22;600;48.044;7.878;2022-12-08T17:35:55;5.40;99.90
1221;DHT22;600;48.044;7.878;2022-12-08T17:38:22;5.40;99.90
1221;DHT22;600;48.044;7.878;2022-12-08T17:40:49;5.30;99.90
1221;DHT22;600;48.044;7.878;2022-12-08T17:43:16;5.30;99.90
1221;DHT22;600;48.044;7.878;2022-12-08T17:45:44;5.20;99.90
1221;DHT22;600;48.044;7.878;2022-12-08T17:48:12;5.20;99.90
1221;DHT22;600;48.044;7.878;2022-12-08T17:50:42;5.20;99.90
1221;DHT22;600;48.044;7.878;2022-12-08T17:53:10;5.30;99.90
1221;DHT22;600;48.044;7.878;2022-12-08T17:55:38;5.30;99.90
1221;DHT22;600;48.044;7.878;2022-12-08T17:58:06;5.30;99.90
1221;DHT22;600;48.044;7.878;2022-12-08T18:00:34;5.30;99.90
1221;DHT22;600;48.044;7.878;2022-12-08T18:03:01;5.30;99.90
1221;DHT22;600;48.044;7.878;2022-12-08T18:05:27;5.30;99.90
1221;DHT22;600;48.044;7.878;2022-12-08T18:07:57;5.20;99.90
1221;DHT22;600;48.044;7.878;2022-12-08T18:10:24;5.20;99.90
1221;DHT22;600;48.044;7.878;2022-12-08T18:12:51;5.20;99.90
1221;DHT22;600;48.044;7.878;2022-12-08T18:15:19;5.20;99.90
1221;DHT22;600;48.044;7.878;2022-12-08T18:17:46;5.20;99.90
1221;DHT22;600;48.044;7.878;2022-12-08T18:20:13;5.20;99.90
1221;DHT22;600;48.044;7.878;2022-12-08T18:22:39;5.20;99.90
1221;DHT22;600;48.044;7.878;2022-12-08T18:25:09;5.20;99.90
1221;DHT22;600;48.044;7.878;2022-12-08T18:27:36;5.20;99.90
1221;DHT22;600;48.044;7.878;2022-12-08T18:30:05;5.20;99.90
1221;DHT22;600;48.044;7.878;2022-12-08T18:32:32;5.20;99.90
1221;DHT22;600;48.044;7.878;2022-12-08T18:34:59;5.20;99.90
1221;DHT22;600;48.044;7.878;2022-12-08T18:37:26;5.20;99.90
1221;DHT22;600;48.044;7.878;2022-12-08T18:39:53;5.20;99.90
1221;DHT22;600;48.044;7.878;2022-12-08T18:42:21;5.20;99.90
1221;DHT22;600;48.044;7.878;2022-12-08T18:44:48;5.10;99.90
1221;DHT22;600;48.044;7.878;2022-12-08T18:47:16;5.10;99.90
1221;DHT22;600;48.044;7.878;2022-12-08T18:49:42;5.00;99.90
1221;DHT22;600;48.044;7.878;2022-12-08T18:52:09;5.00;99.90
1221;DHT22;600;48.044;7.878;2022-12-08T18:54:36;5.00;99.90
1221;DHT22;600;48.044;7.878;2022-12-08T18:57:03;4.90;99.90
1221;DHT22;600;48.044;7.878;2022-12-08T18:59:32;4.90;99.90
1221;DHT22;600;48.044;7.878;2022-12-08T19:01:58;4.90;99.90
1221;DHT22;600;48.044;7.878;2022-12-08T19:04:25;4.90;99.90
1221;DHT22;600;48.044;7.878;2022-12-08T19:06:52;4.90;99.90
1221;DHT22;600;48.044;7.878;2022-12-08T19:09:19;4.90;99.90
1221;DHT22;600;48.044;7.878;2022-12-08T19:11:47;4.90;99.90
1221;DHT22;600;48.044;7.878;2022-12-08T19:14:13;4.80;99.90
1221;DHT22;600;48.044;7.878;2022-12-08T19:16:41;4.80;99.90
1221;DHT22;600;48.044;7.878;2022-12-08T19:19:08;4.80;99.90
1221;DHT22;600;48.044;7.878;2022-12-08T19:21:35;4.70;99.90
1221;DHT22;600;48.044;7.878;2022-12-08T19:24:03;4.70;99.90
1221;DHT22;600;48.044;7.878;2022-12-08T19:26:30;4.60;99.90
1221;DHT22;600;48.044;7.878;2022-12-08T19:28:56;4.60;99.90
1221;DHT22;600;48.044;7.878;2022-12-08T19:31:23;4.60;99.90
1221;DHT22;600;48.044;7.878;2022-12-08T19:33:51;4.60;99.90
1221;DHT22;600;48.044;7.878;2022-12-08T19:36:20;4.50;99.90
1221;DHT22;600;48.044;7.878;2022-12-08T19:38:48;4.50;99.90
1221;DHT22;600;48.044;7.878;2022-12-08T19:41:32;4.50;99.90
1221;DHT22;600;48.044;7.878;2022-12-08T19:44:18;4.50;99.90
1221;DHT22;600;48.044;7.878;2022-12-08T19:47:03;4.50;99.90
1221;DHT22;600;48.044;7.878;2022-12-08T19:49:32;4.60;99.90
1221;DHT22;600;48.044;7.878;2022-12-08T19:51:58;4.60;99.90
1221;DHT22;600;48.044;7.878;2022-12-08T19:54:26;4.60;99.90
1221;DHT22;600;48.044;7.878;2022-12-08T19:56:53;4.50;99.90
1221;DHT22;600;48.044;7.878;2022-12-08T19:59:20;4.50;99.90
1221;DHT22;600;48.044;7.878;2022-12-08T20:01:47;4.50;99.90
1221;DHT22;600;48.044;7.878;2022-12-08T20:04:14;4.50;99.90
1221;DHT22;600;48.044;7.878;2022-12-08T20:06:42;4.50;99.90
1221;DHT22;600;48.044;7.878;2022-12-08T20:09:10;4.50;99.90
1221;DHT22;600;48.044;7.878;2022-12-08T20:11:37;4.50;99.90
1221;DHT22;600;48.044;7.878;2022-12-08T20:14:04;4.50;99.90
1221;DHT22;600;48.044;7.878;2022-12-08T20:16:31;4.40;99.90
1221;DHT22;600;48.044;7.878;2022-12-08T20:18:58;4.40;99.90
1221;DHT22;600;48.044;7.878;2022-12-08T20:21:25;4.40;99.90
1221;DHT22;600;48.044;7.878;2022-12-08T20:23:53;4.30;99.90
1221;DHT22;600;48.044;7.878;2022-12-08T20:26:21;4.30;99.90
1221;DHT22;600;48.044;7.878;2022-12-08T20:28:48;4.20;99.90
1221;DHT22;600;48.044;7.878;2022-12-08T20:31:16;4.20;99.90
1221;DHT22;600;48.044;7.878;2022-12-08T20:33:43;4.20;99.90
1221;DHT22;600;48.044;7.878;2022-12-08T20:36:13;4.20;99.90
1221;DHT22;600;48.044;7.878;2022-12-08T20:38:41;4.20;99.90
1221;DHT22;600;48.044;7.878;2022-12-08T20:41:09;4.10;99.90
1221;DHT22;600;48.044;7.878;2022-12-08T20:43:36;4.10;99.90
1221;DHT22;600;48.044;7.878;2022-12-08T20:46:05;4.10;99.90
1221;DHT22;600;48.044;7.878;2022-12-08T20:48:32;4.20;99.90
1221;DHT22;600;48.044;7.878;2022-12-08T20:50:58;4.20;99.90
1221;DHT22;600;48.044;7.878;2022-12-08T20:53:25;4.20;99.90
1221;DHT22;600;48.044;7.878;2022-12-08T20:55:52;4.20;99.90
1221;DHT22;600;48.044;7.878;2022-12-08T20:58:20;4.20;99.90
1221;DHT22;600;48.044;7.878;2022-12-08T21:00:47;4.10;99.90
1221;DHT22;600;48.044;7.878;2022-12-08T21:03:14;4.10;99.90
1221;DHT22;600;48.044;7.878;2022-12-08T21:05:46;4.10;99.90
1221;DHT22;600;48.044;7.878;2022-12-08T21:08:13;4.10;99.90
1221;DHT22;600;48.044;7.878;2022-12-08T21:10:40;4.10;99.90
1221;DHT22;600;48.044;7.878;2022-12-08T21:13:07;4.10;99.90
1221;DHT22;600;48.044;7.878;2022-12-08T21:15:35;4.10;99.90
1221;DHT22;600;48.044;7.878;2022-12-08T21:18:02;4.20;99.90
1221;DHT22;600;48.044;7.878;2022-12-08T21:20:29;4.20;99.90
1221;DHT22;600;48.044;7.878;2022-12-08T21:22:55;4.20;99.90
1221;DHT22;600;48.044;7.878;2022-12-08T21:25:22;4.20;99.90
1221;DHT22;600;48.044;7.878;2022-12-08T21:27:49;4.20;99.90
1221;DHT22;600;48.044;7.878;2022-12-08T21:30:16;4.20;99.90
1221;DHT22;600;48.044;7.878;2022-12-08T21:32:44;4.20;99.90
1221;DHT22;600;48.044;7.878;2022-12-08T21:35:11;4.20;99.90
1221;DHT22;600;48.044;7.878;2022-12-08T21:37:37;4.10;99.90
1221;DHT22;600;48.044;7.878;2022-12-08T21:40:06;4.10;99.90
1221;DHT22;600;48.044;7.878;2022-12-08T21:42:33;4.00;99.90
1221;DHT22;600;48.044;7.878;2022-12-08T21:45:10;3.90;99.90
1221;DHT22;600;48.044;7.878;2022-12-08T21:47:38;3.90;99.90
1221;DHT22;600;48.044;7.878;2022-12-08T21:50:07;3.80;99.90
1221;DHT22;600;48.044;7.878;2022-12-08T21:52:36;3.80;99.90
1221;DHT22;600;48.044;7.878;2022-12-08T21:55:03;3.80;99.90
1221;DHT22;600;48.044;7.878;2022-12-08T21:57:30;3.70;99.90
1221;DHT22;600;48.044;7.878;2022-12-08T21:59:57;3.70;99.90
1221;DHT22;600;48.044;7.878;2022-12-08T22:02:24;3.70;99.90
1221;DHT22;600;48.044;7.878;2022-12-08T22:04:51;3.60;99.90
1221;DHT22;600;48.044;7.878;2022-12-08T22:07:19;3.60;99.90
1221;DHT22;600;48.044;7.878;2022-12-08T22:09:46;3.60;99.90
1221;DHT22;600;48.044;7.878;2022-12-08T22:12:13;3.60;99.90
1221;DHT22;600;48.044;7.878;2022-12-08T22:14:41;3.70;99.90
1221;DHT22;600;48.044;7.878;2022-12-08T22:17:07;3.70;99.90
1221;DHT22;600;48.044;7.878;2022-12-08T22:19:35;3.80;99.90
1221;DHT22;600;48.044;7.878;2022-12-08T22:22:02;3.80;99.90
1221;DHT22;600;48.044;7.878;2022-12-08T22:24:30;3.80;99.90
1221;DHT22;600;48.044;7.878;2022-12-08T22:26:57;3.80;99.90
1221;DHT22;600;48.044;7.878;2022-12-08T22:29:24;3.80;99.90
1221;DHT22;600;48.044;7.878;2022-12-08T22:31:51;3.90;99.90
1221;DHT22;600;48.044;7.878;2022-12-08T22:34:18;3.90;99.90
1221;DHT22;600;48.044;7.878;2022-12-08T22:36:44;3.90;99.90
1221;DHT22;600;48.044;7.878;2022-12-08T22:39:13;3.90;99.90
1221;DHT22;600;48.044;7.878;2022-12-08T22:41:41;4.00;99.90
1221;DHT22;600;48.044;7.878;2022-12-08T22:44:08;3.90;99.90
1221;DHT22;600;48.044;7.878;2022-12-08T22:46:35;3.90;99.90
1221;DHT22;600;48.044;7.878;2022-12-08T22:49:02;3.90;99.90
1221;DHT22;600;48.044;7.878;2022-12-08T22:51:29;3.90;99.90
1221;DHT22;600;48.044;7.878;2022-12-08T22:53:56;3.90;99.90
1221;DHT22;600;48.044;7.878;2022-12-08T22:56:22;3.90;99.90
1221;DHT22;600;48.044;7.878;2022-12-08T22:58:51;4.00;99.90
1221;DHT22;600;48.044;7.878;2022-12-08T23:01:22;4.00;99.90
1221;DHT22;600;48.044;7.878;2022-12-08T23:03:49;4.00;99.90
1221;DHT22;600;48.044;7.878;2022-12-08T23:06:16;4.00;99.90
1221;DHT22;600;48.044;7.878;2022-12-08T23:08:43;4.00;99.90
1221;DHT22;600;48.044;7.878;2022-12-08T23:11:10;4.00;99.90
1221;DHT22;600;48.044;7.878;2022-12-08T23:13:37;4.00;99.90
1221;DHT22;600;48.044;7.878;2022-12-08T23:16:07;4.10;99.90
1221;DHT22;600;48.044;7.878;2022-12-08T23:18:34;4.10;99.90
1221;DHT22;600;48.044;7.878;2022-12-08T23:21:05;4.10;99.90
1221;DHT22;600;48.044;7.878;2022-12-08T23:23:32;4.00;99.90
1221;DHT22;600;48.044;7.878;2022-12-08T23:25:58;3.90;99.90
